createdAt,value
2023-04-21T00:01:08.726Z,3.50
2023-04-21T00:03:38.824Z,3.80
2023-04-21T00:06:07.434Z,3.10
2023-04-21T00:08:42.355Z,3.40
2023-04-21T00:11:10.873Z,3.30
2023-04-21T00:13:39.050Z,3.90
2023-04-21T00:16:07.654Z,3.60
2023-04-21T00:18:35.792Z,3.60
2023-04-21T00:21:03.945Z,3.10
2023-04-21T00:23:32.065Z,3.60
2023-04-21T00:26:03.193Z,4.10
2023-04-21T00:28:32.243Z,3.80
2023-04-21T00:31:00.497Z,3.00
2023-04-21T00:33:28.855Z,4.60
2023-04-21T00:35:59.420Z,3.50
2023-04-21T00:38:29.281Z,4.50
2023-04-21T00:40:57.340Z,4.30
2023-04-21T00:43:28.424Z,3.90
2023-04-21T00:45:56.563Z,4.00
2023-04-21T00:48:24.916Z,3.90
2023-04-21T00:50:52.931Z,3.90
2023-04-21T00:53:21.154Z,3.90
2023-04-21T00:55:50.454Z,3.80
2023-04-21T00:58:18.759Z,4.20
2023-04-21T01:00:46.754Z,3.90
2023-04-21T01:03:14.957Z,4.20
2023-04-21T01:05:43.261Z,4.20
2023-04-21T01:08:13.453Z,3.90
2023-04-21T01:10:41.479Z,4.50
2023-04-21T01:13:09.437Z,4.50
2023-04-21T01:15:37.453Z,3.80
2023-04-21T01:18:06.646Z,4.70
2023-04-21T01:20:36.282Z,4.30
2023-04-21T01:23:07.823Z,4.30
2023-04-21T01:25:36.260Z,4.70
2023-04-21T01:28:05.079Z,5.10
2023-04-21T01:30:33.143Z,4.30
2023-04-21T01:33:01.379Z,4.30
2023-04-21T01:35:29.582Z,4.00
2023-04-21T01:37:57.663Z,4.50
2023-04-21T01:40:25.746Z,4.50
2023-04-21T01:42:53.763Z,3.90
2023-04-21T01:45:21.804Z,4.30
2023-04-21T01:47:49.845Z,4.50
2023-04-21T01:50:18.526Z,3.90
2023-04-21T01:52:46.516Z,4.10
2023-04-21T01:55:16.435Z,3.90
2023-04-21T01:57:44.465Z,3.50
2023-04-21T02:00:13.506Z,3.50
2023-04-21T02:02:46.192Z,3.60
2023-04-21T02:05:14.677Z,3.30
2023-04-21T02:07:42.857Z,3.60
2023-04-21T02:10:11.710Z,3.50
2023-04-21T02:12:40.835Z,3.50
2023-04-21T02:15:11.751Z,3.10
2023-04-21T02:17:43.055Z,3.60
2023-04-21T02:20:12.429Z,3.90
2023-04-21T02:22:40.878Z,3.90
2023-04-21T02:25:09.072Z,6.90
2023-04-21T02:27:37.223Z,4.60
2023-04-21T02:30:06.486Z,4.40
2023-04-21T02:32:35.461Z,4.30
2023-04-21T02:35:06.063Z,4.00
2023-04-21T02:37:35.418Z,4.30
2023-04-21T02:40:03.845Z,4.20
2023-04-21T02:42:34.268Z,4.30
2023-04-21T02:45:02.287Z,4.10
2023-04-21T02:47:30.462Z,4.10
2023-04-21T02:49:58.360Z,3.80
2023-04-21T02:52:26.802Z,3.60
2023-04-21T02:54:54.737Z,3.80
2023-04-21T02:57:22.703Z,3.60
2023-04-21T02:59:51.354Z,3.90
2023-04-21T03:02:19.267Z,3.90
2023-04-21T03:04:47.154Z,3.40
2023-04-21T03:07:15.030Z,3.60
2023-04-21T03:09:43.375Z,3.70
2023-04-21T03:12:11.355Z,2.90
2023-04-21T03:14:40.087Z,3.60
2023-04-21T03:17:08.003Z,3.40
2023-04-21T03:19:36.081Z,3.50
2023-04-21T03:22:04.202Z,3.30
2023-04-21T03:24:32.900Z,3.50
2023-04-21T03:27:01.836Z,3.90
2023-04-21T03:29:29.788Z,4.00
2023-04-21T03:31:57.735Z,4.10
2023-04-21T03:34:26.283Z,3.90
2023-04-21T03:36:54.274Z,4.20
2023-04-21T03:39:22.622Z,4.50
2023-04-21T03:41:51.435Z,5.20
2023-04-21T03:44:19.392Z,6.80
2023-04-21T03:46:47.263Z,5.30
2023-04-21T03:49:15.174Z,4.60
2023-04-21T03:51:43.098Z,4.30
2023-04-21T03:54:10.975Z,4.50
2023-04-21T03:56:39.072Z,4.90
2023-04-21T03:59:06.966Z,4.90
2023-04-21T04:01:35.545Z,4.50
2023-04-21T04:04:04.052Z,4.20
2023-04-21T04:06:35.636Z,3.90
2023-04-21T04:09:09.708Z,4.60
2023-04-21T04:11:37.972Z,4.70
2023-04-21T04:14:05.902Z,4.80
2023-04-21T04:16:34.922Z,4.30
2023-04-21T04:19:03.723Z,4.70
2023-04-21T04:21:32.591Z,4.20
2023-04-21T04:24:02.374Z,3.70
2023-04-21T04:26:30.373Z,4.40
2023-04-21T04:29:00.472Z,4.50
2023-04-21T04:31:31.159Z,3.80
2023-04-21T04:33:59.065Z,4.00
2023-04-21T04:36:28.492Z,4.20
2023-04-21T04:38:56.552Z,4.30
2023-04-21T04:41:24.555Z,4.30
2023-04-21T04:43:53.672Z,4.00
2023-04-21T04:46:22.337Z,4.90
2023-04-21T04:48:50.749Z,4.30
2023-04-21T04:51:18.909Z,4.30
2023-04-21T04:53:46.818Z,4.40
2023-04-21T04:56:14.789Z,3.90
2023-04-21T04:58:42.757Z,4.40
2023-04-21T05:01:14.950Z,4.50
2023-04-21T05:03:43.514Z,4.30
2023-04-21T05:06:12.140Z,5.00
2023-04-21T05:08:41.550Z,4.20
2023-04-21T05:11:09.616Z,4.40
2023-04-21T05:13:40.024Z,4.40
2023-04-21T05:16:09.817Z,4.30
2023-04-21T05:18:38.101Z,3.90
2023-04-21T05:21:06.240Z,4.20
2023-04-21T05:23:34.922Z,4.10
2023-04-21T05:26:04.537Z,4.30
2023-04-21T05:28:33.703Z,4.60
2023-04-21T05:31:01.591Z,4.00
2023-04-21T05:33:31.991Z,4.10
2023-04-21T05:35:59.978Z,3.50
2023-04-21T05:38:28.190Z,5.10
2023-04-21T05:40:56.277Z,3.70
2023-04-21T05:43:24.310Z,4.10
2023-04-21T05:45:52.260Z,3.90
2023-04-21T05:48:20.287Z,3.60
2023-04-21T05:50:48.287Z,3.40
2023-04-21T05:53:16.663Z,4.60
2023-04-21T05:55:44.612Z,3.40
2023-04-21T05:58:12.587Z,4.10
2023-04-21T06:00:40.585Z,3.70
2023-04-21T06:03:08.665Z,4.30
2023-04-21T06:05:36.742Z,4.00
2023-04-21T06:08:04.807Z,3.50
2023-04-21T06:10:33.377Z,3.80
2023-04-21T06:13:01.522Z,3.40
2023-04-21T06:15:29.415Z,3.90
2023-04-21T06:17:57.438Z,3.60
2023-04-21T06:20:25.474Z,4.10
2023-04-21T06:22:53.544Z,3.80
2023-04-21T06:25:21.551Z,3.10
2023-04-21T06:27:49.426Z,3.50
2023-04-21T06:30:17.740Z,3.40
2023-04-21T06:32:47.793Z,3.50
2023-04-21T06:35:15.875Z,3.80
2023-04-21T06:37:43.818Z,4.20
2023-04-21T06:40:12.633Z,3.90
2023-04-21T06:42:40.712Z,3.50
2023-04-21T06:45:09.836Z,3.90
2023-04-21T06:47:38.267Z,4.10
2023-04-21T06:50:07.472Z,4.50
2023-04-21T06:52:35.786Z,3.50
2023-04-21T06:55:04.012Z,3.40
2023-04-21T06:57:32.403Z,3.60
2023-04-21T07:00:00.681Z,3.50
2023-04-21T07:02:29.168Z,3.60
2023-04-21T07:04:57.328Z,4.10
2023-04-21T07:07:25.646Z,3.20
2023-04-21T07:09:54.010Z,3.50
2023-04-21T07:12:22.025Z,3.50
2023-04-21T07:14:49.921Z,3.10
2023-04-21T07:17:17.857Z,3.30
2023-04-21T07:19:46.377Z,3.00
2023-04-21T07:22:17.779Z,3.10
2023-04-21T07:24:45.976Z,2.80
2023-04-21T07:27:14.395Z,3.00
2023-04-21T07:29:42.767Z,3.20
2023-04-21T07:32:10.798Z,3.10
2023-04-21T07:34:38.819Z,3.20
2023-04-21T07:37:07.172Z,3.10
2023-04-21T07:39:35.358Z,3.00
2023-04-21T07:42:03.472Z,3.50
2023-04-21T07:44:31.860Z,2.90
2023-04-21T07:46:59.784Z,3.30
2023-04-21T07:49:28.682Z,3.20
2023-04-21T07:51:56.660Z,3.10
2023-04-21T07:54:25.788Z,3.40
2023-04-21T07:56:53.725Z,2.80
2023-04-21T07:59:21.891Z,3.30
2023-04-21T08:01:51.768Z,3.20
2023-04-21T08:04:20.136Z,3.20
2023-04-21T08:06:48.782Z,3.10
2023-04-21T08:09:17.762Z,3.20
2023-04-21T08:11:47.298Z,2.80
2023-04-21T08:14:15.358Z,3.00
2023-04-21T08:16:43.513Z,2.90
2023-04-21T08:19:11.682Z,3.60
2023-04-21T08:21:39.795Z,3.10
2023-04-21T08:24:08.687Z,4.10
2023-04-21T08:26:36.652Z,3.00
2023-04-21T08:29:07.442Z,3.40
2023-04-21T08:31:35.809Z,3.20
2023-04-21T08:34:04.721Z,2.80
2023-04-21T08:36:32.895Z,3.70
2023-04-21T08:39:01.572Z,3.20
2023-04-21T08:41:29.741Z,2.50
2023-04-21T08:43:57.947Z,3.20
2023-04-21T08:46:26.386Z,2.90
2023-04-21T08:48:55.902Z,3.00
2023-04-21T08:51:27.899Z,2.90
2023-04-21T08:54:00.606Z,3.50
2023-04-21T08:56:31.801Z,2.70
2023-04-21T08:59:01.574Z,3.60
2023-04-21T09:01:32.847Z,3.50
2023-04-21T09:04:18.853Z,3.50
2023-04-21T09:06:49.603Z,3.00
2023-04-21T09:09:19.847Z,3.20
2023-04-21T09:11:59.618Z,2.50
2023-04-21T09:14:32.604Z,3.00
2023-04-21T09:17:03.750Z,3.10
2023-04-21T09:19:35.618Z,2.60
2023-04-21T09:22:06.301Z,3.10
2023-04-21T09:24:37.194Z,3.30
2023-04-21T09:27:07.335Z,3.00
2023-04-21T09:29:37.778Z,3.00
2023-04-21T09:32:13.609Z,2.50
2023-04-21T09:34:45.110Z,2.80
2023-04-21T09:37:18.202Z,3.00
2023-04-21T09:40:04.157Z,2.70
2023-04-21T09:42:39.654Z,3.70
2023-04-21T09:47:43.688Z,3.00
2023-04-21T09:57:48.690Z,2.80
2023-04-21T10:00:17.973Z,2.70
2023-04-21T10:02:50.299Z,2.80
2023-04-21T10:05:18.517Z,2.70
2023-04-21T10:07:47.896Z,3.20
2023-04-21T10:10:24.751Z,3.00
2023-04-21T10:12:53.008Z,2.80
2023-04-21T10:15:34.063Z,3.20
2023-04-21T10:18:19.274Z,2.80
2023-04-21T10:20:56.537Z,2.90
2023-04-21T10:23:28.929Z,2.80
2023-04-21T10:26:07.337Z,2.20
2023-04-21T10:29:01.081Z,2.60
2023-04-21T10:31:44.655Z,3.00
2023-04-21T10:34:13.340Z,2.40
2023-04-21T10:36:51.934Z,3.00
2023-04-21T10:39:31.379Z,2.70
2023-04-21T10:42:23.203Z,2.70
2023-04-21T10:44:57.327Z,3.80
2023-04-21T10:47:29.453Z,3.90
2023-04-21T10:49:58.287Z,2.90
2023-04-21T10:52:33.599Z,3.00
2023-04-21T10:55:01.519Z,3.30
2023-04-21T10:57:32.477Z,2.50
2023-04-21T11:00:01.409Z,2.30
2023-04-21T11:02:29.653Z,3.50
2023-04-21T11:04:58.223Z,3.90
2023-04-21T11:07:26.985Z,3.40
2023-04-21T11:10:01.568Z,2.90
2023-04-21T11:12:38.536Z,3.10
2023-04-21T11:15:08.467Z,2.60
2023-04-21T11:17:37.231Z,2.90
2023-04-21T11:20:06.916Z,3.10
2023-04-21T11:22:36.696Z,2.80
2023-04-21T11:25:05.604Z,3.40
2023-04-21T11:27:33.871Z,3.50
2023-04-21T11:30:03.770Z,3.60
2023-04-21T11:32:32.776Z,3.30
2023-04-21T11:35:00.939Z,3.50
2023-04-21T11:37:29.113Z,3.60
2023-04-21T11:39:58.877Z,3.40
2023-04-21T11:42:27.070Z,2.90
2023-04-21T11:44:56.630Z,3.20
2023-04-21T11:47:26.322Z,3.60
2023-04-21T11:49:56.618Z,3.00
2023-04-21T11:52:25.574Z,3.20
2023-04-21T11:55:00.959Z,3.40
2023-04-21T11:57:30.392Z,3.20
2023-04-21T12:00:02.224Z,3.60
2023-04-21T12:02:33.649Z,3.30
2023-04-21T12:05:09.874Z,3.10
2023-04-21T12:07:39.118Z,3.10
2023-04-21T12:10:21.007Z,3.60
2023-04-21T12:12:49.389Z,2.70
2023-04-21T12:15:21.693Z,2.80
2023-04-21T12:17:51.472Z,3.90
2023-04-21T12:20:21.461Z,3.20
2023-04-21T12:22:49.787Z,3.50
2023-04-21T12:25:18.008Z,3.10
2023-04-21T12:27:53.424Z,3.90
2023-04-21T12:30:21.711Z,3.90
2023-04-21T12:32:52.298Z,2.90
2023-04-21T12:35:20.633Z,3.40
2023-04-21T12:37:48.694Z,3.50
2023-04-21T12:40:16.819Z,3.70
2023-04-21T12:42:44.950Z,3.30
2023-04-21T12:45:13.779Z,3.10
2023-04-21T12:47:44.222Z,3.30
2023-04-21T12:50:14.394Z,4.00
2023-04-21T12:52:42.683Z,4.20
2023-04-21T12:55:10.872Z,3.30
2023-04-21T12:57:39.157Z,3.30
2023-04-21T13:00:08.862Z,3.50
2023-04-21T13:02:38.397Z,3.10
2023-04-21T13:05:07.260Z,3.10
2023-04-21T13:07:35.504Z,3.30
2023-04-21T13:10:06.529Z,3.40
2023-04-21T13:12:34.860Z,3.30
2023-04-21T13:15:03.369Z,3.70
2023-04-21T13:17:32.745Z,3.50
2023-04-21T13:20:01.063Z,3.10
2023-04-21T13:22:29.647Z,3.20
2023-04-21T13:24:57.769Z,3.10
2023-04-21T13:35:04.988Z,3.30
2023-04-21T13:37:33.551Z,3.60
2023-04-21T13:40:02.705Z,3.50
2023-04-21T13:42:31.110Z,3.50
2023-04-21T13:44:59.361Z,3.60
2023-04-21T13:47:27.356Z,3.10
2023-04-21T13:49:55.342Z,2.90
2023-04-21T13:52:23.443Z,3.00
2023-04-21T13:54:52.360Z,4.00
2023-04-21T13:57:21.063Z,4.00
2023-04-21T13:59:50.119Z,4.00
2023-04-21T14:02:18.605Z,4.10
2023-04-21T14:04:47.671Z,7.00
2023-04-21T14:07:19.037Z,3.90
2023-04-21T14:09:47.115Z,5.70
2023-04-21T14:12:15.514Z,3.50
2023-04-21T14:14:43.503Z,4.20
2023-04-21T14:17:11.551Z,3.60
2023-04-21T14:19:39.672Z,3.80
2023-04-21T14:22:07.952Z,4.80
2023-04-21T14:24:35.955Z,4.20
2023-04-21T14:27:04.035Z,4.10
2023-04-21T14:29:32.749Z,3.80
2023-04-21T14:32:01.143Z,3.70
2023-04-21T14:34:29.821Z,4.00
2023-04-21T14:36:57.960Z,3.40
2023-04-21T14:39:25.985Z,3.70
2023-04-21T14:41:53.925Z,3.90
2023-04-21T14:44:22.061Z,3.80
2023-04-21T14:47:00.966Z,4.10
2023-04-21T14:52:03.761Z,3.80
2023-04-21T14:54:32.022Z,3.60
2023-04-21T14:57:17.998Z,3.50
2023-04-21T14:59:51.821Z,3.80
2023-04-21T15:02:20.918Z,3.50
2023-04-21T15:04:49.423Z,3.80
2023-04-21T15:07:23.128Z,3.60
2023-04-21T15:09:53.299Z,4.00
2023-04-21T15:12:21.574Z,4.30
2023-04-21T15:14:49.713Z,4.60
2023-04-21T15:17:17.799Z,3.60
2023-04-21T15:19:45.822Z,3.60
2023-04-21T15:22:15.385Z,3.80
2023-04-21T15:24:43.656Z,4.30
2023-04-21T15:27:11.672Z,4.00
2023-04-21T15:29:40.741Z,5.30
2023-04-21T15:32:09.673Z,3.50
2023-04-21T15:34:38.312Z,4.00
2023-04-21T15:37:06.449Z,4.10
2023-04-21T15:39:34.691Z,4.00
